Time;durP1;ratioP1;P1;durP2;ratioP2;P2;SDS_P1;SDS_P2;PMS_P1;PMS_P2;Temp;Humidity;BMP_temperature;BMP_pressure;BME280_temperature;BME280_humidity;BME280_pressure;Samples;Min_cycle;Max_cycle;Signal;HPM_P1;HPM_P2
2022/04/13 00:00:11;;;;;;;13.50;6.80;;;;;;;9.10;64.74;100573.22;4977651;28;20294;-73
2022/04/13 00:02:38;;;;;;;9.97;6.50;;;;;;;9.09;64.73;100574.16;4974073;28;20670;-72
2022/04/13 00:05:06;;;;;;;18.20;10.50;;;;;;;9.05;64.87;100567.31;4974475;28;20325;-72
2022/04/13 00:07:32;;;;;;;18.90;10.57;;;;;;;8.99;65.12;100571.19;4980383;28;20227;-72
2022/04/13 00:10:00;;;;;;;12.63;8.17;;;;;;;8.94;65.24;100573.25;4979777;28;20201;-71
2022/04/13 00:12:27;;;;;;;7.70;6.20;;;;;;;8.91;65.10;100567.25;4976390;28;20295;-72
2022/04/13 00:14:54;;;;;;;9.17;6.27;;;;;;;8.86;65.63;100567.53;4979565;28;20210;-72
2022/04/13 00:17:22;;;;;;;5.87;4.50;;;;;;;8.83;65.95;100565.03;4978277;28;20228;-72
2022/04/13 00:19:48;;;;;;;7.23;4.80;;;;;;;8.76;65.94;100569.00;4987829;28;20278;-72
2022/04/13 00:22:15;;;;;;;5.13;4.53;;;;;;;8.69;66.38;100562.31;4977958;28;20216;-73
2022/04/13 00:24:41;;;;;;;6.73;5.10;;;;;;;8.63;66.29;100560.00;4988292;28;20756;-72
2022/04/13 00:27:09;;;;;;;6.10;5.03;;;;;;;8.60;66.87;100563.69;4988066;28;20310;-72
2022/04/13 00:29:36;;;;;;;6.97;5.27;;;;;;;8.58;66.79;100559.44;4982635;28;20238;-72
2022/04/13 00:32:03;;;;;;;5.53;5.03;;;;;;;8.58;66.94;100562.09;4983275;28;20212;-72
2022/04/13 00:34:30;;;;;;;6.73;5.60;;;;;;;8.55;67.29;100557.81;4988196;28;20195;-72
2022/04/13 00:36:57;;;;;;;9.80;6.43;;;;;;;8.53;67.31;100553.53;4979469;28;20306;-72
2022/04/13 00:39:24;;;;;;;9.77;6.90;;;;;;;8.52;67.21;100555.31;4984608;28;20608;-72
2022/04/13 00:41:57;;;;;;;10.27;6.87;;;;;;;8.51;67.52;100556.25;4988183;28;20291;-73
2022/04/13 00:44:26;;;;;;;10.33;7.37;;;;;;;8.50;67.30;100551.88;4989004;28;20208;-71
2022/04/13 00:49:31;;;;;;;10.23;6.90;;;;;;;8.49;67.32;100551.97;4997465;28;20227;-71
2022/04/13 00:51:59;;;;;;;12.60;7.33;;;;;;;8.48;67.52;100553.78;5007330;28;20239;-71
2022/04/13 00:54:29;;;;;;;10.90;6.97;;;;;;;8.46;67.61;100550.34;5008516;28;20293;-71
2022/04/13 00:56:56;;;;;;;9.77;5.83;;;;;;;8.43;67.54;100545.19;5004655;28;20269;-71
2022/04/13 00:59:26;;;;;;;8.33;6.27;;;;;;;8.39;67.17;100556.94;4994454;28;20203;-71
2022/04/13 01:01:56;;;;;;;7.20;5.67;;;;;;;8.35;67.82;100561.56;5008879;28;20277;-71
2022/04/13 01:04:23;;;;;;;5.83;5.10;;;;;;;8.28;67.64;100560.16;5006930;28;20285;-71
2022/04/13 01:06:51;;;;;;;5.07;4.50;;;;;;;8.23;67.84;100567.53;4993697;28;20259;-71
2022/04/13 01:09:19;;;;;;;8.57;5.00;;;;;;;8.20;68.34;100566.84;5004092;28;20322;-71
2022/04/13 01:11:46;;;;;;;6.27;4.70;;;;;;;8.16;68.56;100571.44;5005304;28;20213;-72
2022/04/13 01:14:13;;;;;;;7.50;4.80;;;;;;;8.16;68.81;100571.44;5000242;28;20258;-71
2022/04/13 01:16:41;;;;;;;6.37;4.83;;;;;;;8.15;69.15;100569.72;4999882;28;20305;-71
2022/04/13 01:19:13;;;;;;;5.90;5.23;;;;;;;8.14;69.37;100573.31;5007528;28;20231;-71
2022/04/13 01:21:44;;;;;;;9.13;6.10;;;;;;;8.13;69.29;100565.44;5003940;28;20457;-70
2022/04/13 01:24:13;;;;;;;7.20;6.10;;;;;;;8.12;69.14;100561.94;5004671;28;20564;-71
2022/04/13 01:26:40;;;;;;;9.97;6.67;;;;;;;8.10;69.68;100571.78;5006366;28;20309;-71
2022/04/13 01:29:08;;;;;;;8.43;6.07;;;;;;;8.10;69.58;100574.41;5000175;28;20222;-71
2022/04/13 01:31:35;;;;;;;6.50;5.47;;;;;;;8.08;69.74;100571.00;5011348;28;20582;-71
2022/04/13 01:34:02;;;;;;;8.10;5.90;;;;;;;8.07;70.08;100576.38;5011083;28;20239;-71
2022/04/13 01:36:29;;;;;;;7.03;4.80;;;;;;;8.03;69.59;100578.38;5011749;28;20294;-71
2022/04/13 01:38:56;;;;;;;5.00;4.40;;;;;;;7.98;69.95;100577.75;5009972;28;20301;-70
2022/04/13 01:41:24;;;;;;;5.10;4.27;;;;;;;7.92;69.90;100576.28;5010677;28;20231;-71
2022/04/13 01:43:50;;;;;;;5.07;4.10;;;;;;;7.87;69.35;100580.97;4992551;28;20290;-71
2022/04/13 01:46:17;;;;;;;4.93;4.00;;;;;;;7.80;70.14;100576.06;4999410;28;20223;-72
2022/04/13 01:48:44;;;;;;;5.37;4.87;;;;;;;7.76;70.49;100571.88;5005999;28;20310;-73
2022/04/13 01:51:10;;;;;;;5.37;4.17;;;;;;;7.73;70.54;100575.53;5005986;28;20290;-72
2022/04/13 01:53:37;;;;;;;5.70;4.50;;;;;;;7.70;70.33;100582.81;5011236;28;20305;-71
2022/04/13 01:56:04;;;;;;;4.33;3.37;;;;;;;7.63;70.53;100577.81;5011141;28;20203;-72
2022/04/13 01:58:32;;;;;;;4.27;3.60;;;;;;;7.56;70.09;100586.16;5010828;28;20222;-72
2022/04/13 02:00:59;;;;;;;4.03;3.40;;;;;;;7.49;70.42;100583.00;5009870;28;20343;-72
2022/04/13 02:03:26;;;;;;;4.17;3.77;;;;;;;7.44;71.40;100585.00;5011032;28;20285;-72
2022/04/13 02:05:53;;;;;;;4.83;4.03;;;;;;;7.41;71.39;100582.50;5011244;28;20250;-72
2022/04/13 02:08:20;;;;;;;4.93;4.30;;;;;;;7.40;71.42;100583.44;5010685;28;20249;-71
2022/04/13 02:10:47;;;;;;;5.93;4.17;;;;;;;7.38;72.06;100577.38;5011283;28;20199;-72
2022/04/13 02:13:13;;;;;;;6.30;4.83;;;;;;;7.38;72.09;100577.38;5010647;28;20206;-72
2022/04/13 02:15:42;;;;;;;6.60;4.80;;;;;;;7.37;72.07;100575.66;5008299;28;20294;-72
2022/04/13 02:18:09;;;;;;;7.43;5.30;;;;;;;7.37;72.25;100575.66;4990965;28;20310;-72
2022/04/13 02:20:35;;;;;;;6.47;5.13;;;;;;;7.36;72.26;100575.72;5010810;28;20219;-72
2022/04/13 02:23:02;;;;;;;8.77;5.30;;;;;;;7.35;72.23;100572.22;5002214;28;20278;-71
2022/04/13 02:25:29;;;;;;;5.87;5.23;;;;;;;7.35;72.34;100572.22;5009728;28;20234;-72
2022/04/13 02:27:56;;;;;;;6.43;5.37;;;;;;;7.33;72.58;100574.13;5009056;28;20223;-72
2022/04/13 02:30:23;;;;;;;7.23;5.67;;;;;;;7.32;73.05;100575.91;5009983;28;20261;-72
2022/04/13 02:32:51;;;;;;;8.67;5.27;;;;;;;7.33;73.27;100574.13;5007452;28;20585;-72
2022/04/13 02:35:17;;;;;;;6.77;5.20;;;;;;;7.32;72.82;100575.06;4995535;28;20207;-72
2022/04/13 02:37:44;;;;;;;6.70;4.93;;;;;;;7.29;73.02;100573.41;4999137;28;20306;-73
2022/04/13 02:40:12;;;;;;;6.63;5.40;;;;;;;7.30;73.05;100579.56;5008882;28;20202;-72
2022/04/13 02:42:39;;;;;;;5.80;5.20;;;;;;;7.28;73.50;100577.00;4994853;28;20814;-72
2022/04/13 02:45:07;;;;;;;5.83;4.87;;;;;;;7.29;73.46;100575.19;5008681;28;20757;-73
2022/04/13 02:47:34;;;;;;;6.20;4.43;;;;;;;7.25;72.78;100571.84;5009789;28;20235;-73
2022/04/13 02:50:02;;;;;;;6.27;5.20;;;;;;;7.25;73.13;100571.00;4996763;28;20242;-72
2022/04/13 02:52:29;;;;;;;5.77;5.17;;;;;;;7.24;73.31;100569.28;4999371;28;20293;-71
2022/04/13 02:54:56;;;;;;;6.67;5.30;;;;;;;7.21;73.19;100564.97;5010093;28;20199;-72
2022/04/13 02:57:23;;;;;;;7.27;6.03;;;;;;;7.21;72.80;100569.41;5008999;28;20233;-72
2022/04/13 02:59:49;;;;;;;7.57;5.93;;;;;;;7.19;73.46;100571.28;5003547;28;20282;-71
2022/04/13 03:02:17;;;;;;;9.40;5.90;;;;;;;7.17;73.42;100581.97;4999627;28;20291;-73
2022/04/13 03:04:45;;;;;;;7.67;5.60;;;;;;;7.16;73.11;100576.78;5005655;28;20226;-73
2022/04/13 03:07:15;;;;;;;8.30;4.97;;;;;;;7.12;73.48;100573.41;5009605;28;20238;-72
2022/04/13 03:09:42;;;;;;;5.27;4.10;;;;;;;7.07;73.37;100575.41;5008854;28;20207;-73
2022/04/13 03:12:10;;;;;;;7.57;4.00;;;;;;;7.00;73.46;100576.66;5006542;28;20259;-73
2022/04/13 03:14:37;;;;;;;8.00;4.50;;;;;;;6.96;73.69;100575.97;4994689;28;20428;-72
2022/04/13 03:17:04;;;;;;;4.97;4.10;;;;;;;6.93;73.49;100573.47;4994966;28;20340;-72
2022/04/13 03:19:32;;;;;;;6.23;5.07;;;;;;;6.91;74.25;100582.41;4995850;28;20303;-73
2022/04/13 03:21:58;;;;;;;8.43;5.27;;;;;;;6.89;74.12;100576.34;4990765;28;20203;-72
2022/04/13 03:24:26;;;;;;;7.87;5.60;;;;;;;6.86;74.24;100579.13;4990607;28;20214;-73
2022/04/13 03:26:53;;;;;;;7.60;5.57;;;;;;;6.84;74.29;100573.03;4990077;28;20251;-72
2022/04/13 03:29:20;;;;;;;11.17;6.17;;;;;;;6.82;74.25;100575.78;4995267;28;20315;-72
2022/04/13 03:31:47;;;;;;;8.57;6.17;;;;;;;6.80;74.01;100574.16;5002830;28;20294;-72
2022/04/13 03:34:13;;;;;;;7.93;6.33;;;;;;;6.79;74.39;100573.28;5009507;28;20219;-72
2022/04/13 03:36:40;;;;;;;9.40;6.20;;;;;;;6.78;74.35;100566.28;5009317;28;20242;-71
2022/04/13 03:39:07;;;;;;;6.33;5.30;;;;;;;6.76;74.56;100567.28;5009153;28;20233;-72
2022/04/13 03:41:36;;;;;;;6.67;5.00;;;;;;;6.74;74.67;100579.75;5009669;28;20724;-72
2022/04/13 03:44:02;;;;;;;7.27;5.53;;;;;;;6.70;74.62;100578.16;5008956;28;20253;-72
2022/04/13 03:46:29;;;;;;;7.83;5.30;;;;;;;6.68;74.61;100580.03;5008240;28;20649;-72
2022/04/13 03:48:56;;;;;;;9.47;5.93;;;;;;;6.65;74.92;100581.03;5009362;28;20223;-72
2022/04/13 03:51:22;;;;;;;7.80;6.10;;;;;;;6.64;74.85;100581.94;5001098;28;20286;-72
2022/04/13 03:53:49;;;;;;;7.90;6.17;;;;;;;6.62;74.85;100586.50;5005805;28;20195;-72
2022/04/13 03:56:16;;;;;;;11.07;6.17;;;;;;;6.61;75.41;100585.63;5008856;28;20252;-72
2022/04/13 03:58:44;;;;;;;8.67;7.10;;;;;;;6.61;75.46;100587.41;5008606;28;20297;-71
2022/04/13 04:01:11;;;;;;;7.73;6.67;;;;;;;6.60;75.29;100591.00;5000754;28;20212;-72
2022/04/13 04:03:38;;;;;;;10.00;7.13;;;;;;;6.59;75.60;100599.88;4994059;28;20299;-72
2022/04/13 04:06:05;;;;;;;15.13;7.60;;;;;;;6.59;75.59;100606.00;5001964;28;20310;-71
2022/04/13 04:08:33;;;;;;;9.27;7.57;;;;;;;6.59;75.55;100608.66;4998860;28;20281;-72
2022/04/13 04:11:00;;;;;;;9.20;7.07;;;;;;;6.58;75.38;100614.88;5004168;28;20209;-72
2022/04/13 04:13:27;;;;;;;10.57;7.47;;;;;;;6.57;75.36;100610.53;4996842;28;20309;-72
2022/04/13 04:15:55;;;;;;;12.80;8.20;;;;;;;6.57;75.56;100612.31;4996991;28;20247;-72
2022/04/13 04:18:21;;;;;;;9.50;7.77;;;;;;;6.56;75.73;100613.22;5000125;28;20310;-72
2022/04/13 04:20:48;;;;;;;12.83;7.03;;;;;;;6.56;75.75;100613.22;5001096;28;20278;-71
2022/04/13 04:23:14;;;;;;;12.43;7.47;;;;;;;6.54;75.69;100615.09;5005439;28;20317;-72
2022/04/13 04:25:41;;;;;;;13.83;8.00;;;;;;;6.53;75.90;100608.09;5004638;28;20203;-72
2022/04/13 04:28:10;;;;;;;10.80;6.97;;;;;;;6.53;75.64;100616.88;5001365;28;20722;-71
2022/04/13 04:30:36;;;;;;;9.10;6.90;;;;;;;6.51;76.13;100613.44;5000489;28;20290;-72
2022/04/13 04:33:05;;;;;;;10.67;7.40;;;;;;;6.50;76.23;100610.88;5003506;28;20219;-72
2022/04/13 04:35:32;;;;;;;9.40;7.20;;;;;;;6.49;76.00;100611.78;5005875;28;20293;-72
2022/04/13 04:37:59;;;;;;;11.00;7.60;;;;;;;6.48;76.11;100621.53;5013666;28;20230;-72
2022/04/13 04:40:26;;;;;;;10.43;7.23;;;;;;;6.46;76.30;100618.09;5020717;28;20203;-72
2022/04/13 04:42:54;;;;;;;10.60;7.10;;;;;;;6.45;75.83;100618.19;5008449;28;20696;-72
2022/04/13 04:45:20;;;;;;;8.70;6.90;;;;;;;6.41;76.27;100620.09;5007380;28;20289;-72
2022/04/13 04:47:48;;;;;;;8.70;6.90;;;;;;;6.39;76.19;100621.09;5005213;28;20305;-72
2022/04/13 04:50:16;;;;;;;9.63;7.47;;;;;;;6.36;75.90;100624.75;5004581;28;20374;-72
2022/04/13 04:52:43;;;;;;;13.27;7.33;;;;;;;6.37;76.34;100628.25;5008947;28;20210;-72
2022/04/13 04:55:10;;;;;;;13.60;8.07;;;;;;;6.36;76.37;100634.47;5008166;28;20217;-72
2022/04/13 04:57:37;;;;;;;16.60;7.83;;;;;;;6.37;76.85;100633.53;5008091;28;20234;-72
2022/04/13 05:00:06;;;;;;;13.90;8.60;;;;;;;6.37;76.63;100636.19;5008502;28;20720;-72
2022/04/13 05:02:33;;;;;;;13.47;9.43;;;;;;;6.37;76.71;100623.81;5008105;28;20222;-72
2022/04/13 05:04:59;;;;;;;14.57;8.30;;;;;;;6.38;76.79;100627.31;5012438;28;20202;-72
2022/04/13 05:07:27;;;;;;;13.23;7.93;;;;;;;6.39;77.04;100621.97;5011387;28;20357;-72
2022/04/13 05:09:54;;;;;;;9.57;7.53;;;;;;;6.40;77.11;100626.31;5012805;28;20249;-72
2022/04/13 05:12:21;;;;;;;11.00;7.10;;;;;;;6.42;77.15;100629.75;5011927;28;20213;-71
2022/04/13 05:14:47;;;;;;;8.53;6.13;;;;;;;6.43;77.73;100636.78;5012325;28;20289;-72
2022/04/13 05:17:15;;;;;;;7.27;6.00;;;;;;;6.45;77.52;100637.53;5010517;28;20289;-72
2022/04/13 05:19:41;;;;;;;8.27;5.67;;;;;;;6.47;77.97;100633.03;5012043;28;20207;-72
2022/04/13 05:22:08;;;;;;;9.17;5.87;;;;;;;6.49;77.63;100625.88;5011810;28;20203;-71
2022/04/13 05:24:36;;;;;;;7.60;5.70;;;;;;;6.54;78.25;100630.97;5011571;28;20241;-72
2022/04/13 05:27:03;;;;;;;7.40;5.70;;;;;;;6.57;78.04;100631.69;5010907;28;20231;-72
2022/04/13 05:29:30;;;;;;;7.30;6.30;;;;;;;6.60;78.18;100636.84;5011090;28;20233;-72
2022/04/13 05:31:56;;;;;;;9.27;6.67;;;;;;;6.65;78.65;100638.38;5009918;28;20302;-72
2022/04/13 05:34:23;;;;;;;10.50;6.53;;;;;;;6.71;78.60;100646.91;4998031;28;20229;-72
2022/04/13 05:36:49;;;;;;;11.47;6.87;;;;;;;6.77;78.50;100657.22;5011398;28;20213;-71
2022/04/13 05:39:16;;;;;;;9.50;6.50;;;;;;;6.85;78.82;100648.88;5006712;28;20742;-71
2022/04/13 05:41:44;;;;;;;10.27;6.67;;;;;;;6.94;78.60;100641.38;5007115;28;20235;-71
2022/04/13 05:44:10;;;;;;;8.33;6.27;;;;;;;7.02;79.05;100648.94;5000338;28;20614;-72
2022/04/13 05:46:37;;;;;;;7.73;6.30;;;;;;;7.10;79.10;100656.50;4998266;28;20306;-72
2022/04/13 05:49:04;;;;;;;10.63;7.30;;;;;;;7.19;79.64;100651.59;5001995;28;20326;-71
2022/04/13 05:51:31;;;;;;;11.70;7.73;;;;;;;7.30;79.56;100659.91;5008646;28;20199;-72
2022/04/13 05:53:57;;;;;;;15.77;9.57;;;;;;;7.44;79.91;100666.28;5011758;28;20278;-72
2022/04/13 05:56:24;;;;;;;15.83;9.83;;;;;;;7.54;79.73;100668.41;5011194;28;20211;-72
2022/04/13 05:58:52;;;;;;;10.93;7.80;;;;;;;7.65;79.41;100666.06;5011513;28;20305;-72
2022/04/13 06:01:18;;;;;;;11.47;7.53;;;;;;;7.80;79.75;100668.88;5011118;28;20282;-72
2022/04/13 06:03:45;;;;;;;9.03;7.57;;;;;;;7.94;79.87;100682.25;5010652;28;20203;-71
2022/04/13 06:06:12;;;;;;;9.03;7.60;;;;;;;8.06;79.73;100684.28;5003598;28;20217;-72
2022/04/13 06:08:38;;;;;;;12.63;7.97;;;;;;;8.21;79.62;100680.84;5011086;28;20231;-72
2022/04/13 06:11:05;;;;;;;9.40;8.40;;;;;;;8.37;80.32;100686.22;5011495;28;20297;-72
2022/04/13 06:13:32;;;;;;;12.27;8.87;;;;;;;8.52;80.34;100685.38;5001363;28;20242;-73
2022/04/13 06:16:00;;;;;;;11.87;8.37;;;;;;;8.69;80.13;100681.81;5006521;28;20675;-71
2022/04/13 06:18:27;;;;;;;8.80;7.77;;;;;;;8.81;80.32;100691.72;5003988;28;20703;-72
2022/04/13 06:20:53;;;;;;;11.43;7.70;;;;;;;8.94;79.88;100697.25;5006337;28;20269;-72
2022/04/13 06:23:20;;;;;;;10.20;7.73;;;;;;;9.07;80.01;100705.38;4995180;28;20199;-72
2022/04/13 06:25:46;;;;;;;11.97;6.83;;;;;;;9.19;79.67;100708.19;5010359;28;20285;-72
2022/04/13 06:28:13;;;;;;;7.07;5.70;;;;;;;9.32;78.71;100711.00;5008868;28;20250;-73
2022/04/13 06:30:40;;;;;;;9.33;5.67;;;;;;;9.45;78.51;100714.69;5010413;28;20210;-71
2022/04/13 06:33:08;;;;;;;8.10;4.90;;;;;;;9.59;77.18;100717.41;5010416;28;20237;-71
2022/04/13 06:35:34;;;;;;;10.07;7.00;;;;;;;9.71;77.14;100716.66;5010201;28;20544;-71
2022/04/13 06:38:01;;;;;;;10.03;6.67;;;;;;;9.88;76.12;100722.78;5009643;28;20218;-71
2022/04/13 06:40:27;;;;;;;10.63;6.13;;;;;;;9.99;75.35;100725.69;5010121;28;20206;-72
2022/04/13 06:42:56;;;;;;;8.27;5.57;;;;;;;10.08;74.28;100730.44;5010887;28;20195;-71
2022/04/13 06:45:23;;;;;;;7.00;4.77;;;;;;;10.17;73.18;100735.25;5010712;28;20203;-72
2022/04/13 06:47:50;;;;;;;9.20;4.57;;;;;;;10.28;72.19;100730.13;5029517;23;20238;-74
2022/04/13 06:50:18;;;;;;;10.50;5.13;;;;;;;10.43;72.15;100731.00;5000286;28;20223;-74
2022/04/13 06:52:45;;;;;;;7.20;4.93;;;;;;;10.57;70.93;100728.34;5000007;28;20231;-74
2022/04/13 06:55:12;;;;;;;5.03;3.93;;;;;;;10.73;70.30;100728.28;4999589;28;20748;-73
2022/04/13 06:57:38;;;;;;;12.17;4.60;;;;;;;10.91;69.54;100724.44;4995719;28;20726;-73
2022/04/13 07:00:07;;;;;;;8.63;5.17;;;;;;;11.10;68.37;100719.66;4994507;28;20212;-73
2022/04/13 07:02:35;;;;;;;10.17;4.07;;;;;;;11.31;67.70;100727.19;4994156;28;20678;-72
2022/04/13 07:05:01;;;;;;;6.20;4.03;;;;;;;11.48;67.03;100722.47;4999156;28;20646;-74
2022/04/13 07:07:30;;;;;;;6.47;4.20;;;;;;;11.68;66.23;100722.94;5005963;28;20308;-73
2022/04/13 07:09:56;;;;;;;6.77;4.63;;;;;;;11.85;65.68;100728.03;4995728;28;20317;-73
2022/04/13 07:12:23;;;;;;;6.13;4.30;;;;;;;12.02;65.49;100730.44;4999171;28;20580;-71
2022/04/13 07:14:49;;;;;;;6.97;5.60;;;;;;;12.21;65.91;100732.69;5005510;28;20303;-73
2022/04/13 07:17:16;;;;;;;7.00;6.00;;;;;;;12.41;66.66;100737.50;4994558;28;20215;-74
2022/04/13 07:19:43;;;;;;;5.47;4.50;;;;;;;12.59;66.65;100738.03;5000235;28;20250;-73
2022/04/13 07:22:09;;;;;;;7.30;5.00;;;;;;;12.74;66.20;100744.13;5003038;28;20671;-74
2022/04/13 07:24:37;;;;;;;6.97;4.70;;;;;;;12.86;65.59;100729.91;5003682;28;20203;-75
2022/04/13 07:27:05;;;;;;;8.13;5.20;;;;;;;12.98;65.22;100734.38;4993712;28;20231;-74
2022/04/13 07:29:31;;;;;;;7.43;4.90;;;;;;;13.10;64.90;100733.47;5001695;28;20727;-73
2022/04/13 07:31:58;;;;;;;7.60;5.30;;;;;;;13.26;65.07;100737.72;4999471;28;20518;-72
2022/04/13 07:34:25;;;;;;;6.50;5.00;;;;;;;13.44;65.12;100739.91;5006043;28;20705;-73
2022/04/13 07:36:51;;;;;;;9.70;5.47;;;;;;;13.62;64.75;100734.16;4996542;28;20203;-74
2022/04/13 07:39:18;;;;;;;7.37;4.93;;;;;;;13.81;64.68;100740.69;5000753;28;20643;-72
2022/04/13 07:41:46;;;;;;;7.57;5.13;;;;;;;13.98;63.63;100736.75;4996652;28;20212;-74
2022/04/13 07:44:14;;;;;;;12.87;5.53;;;;;;;14.15;62.73;100743.50;4991200;28;20208;-73
2022/04/13 07:46:40;;;;;;;9.83;5.90;;;;;;;14.34;63.01;100746.47;4994262;28;20215;-73
2022/04/13 07:49:08;;;;;;;10.90;6.07;;;;;;;14.52;62.95;100745.06;4996725;28;20510;-74
2022/04/13 07:51:35;;;;;;;7.17;6.00;;;;;;;14.69;62.49;100735.69;4997137;28;20333;-72
2022/04/13 07:54:02;;;;;;;8.90;5.97;;;;;;;14.84;62.40;100742.53;4999129;28;20295;-74
2022/04/13 07:56:29;;;;;;;10.10;5.53;;;;;;;15.02;62.01;100750.94;4994183;28;20220;-74
2022/04/13 07:58:57;;;;;;;9.17;5.50;;;;;;;15.18;61.44;100751.41;4997114;28;20245;-71
2022/04/13 08:01:23;;;;;;;10.00;5.90;;;;;;;15.31;59.95;100750.41;5000035;28;20207;-72
2022/04/13 08:03:50;;;;;;;8.20;6.10;;;;;;;15.47;59.96;100754.41;4999278;28;20303;-74
2022/04/13 08:06:17;;;;;;;9.37;5.87;;;;;;;15.65;60.05;100756.56;4997899;28;20303;-74
2022/04/13 08:08:43;;;;;;;7.40;5.17;;;;;;;15.80;59.18;100753.47;4998586;28;20280;-73
2022/04/13 08:11:10;;;;;;;9.77;5.27;;;;;;;15.94;58.02;100752.31;4995266;28;20318;-74
2022/04/13 08:13:36;;;;;;;9.53;5.23;;;;;;;16.09;57.35;100758.22;4996754;28;20292;-73
2022/04/13 08:16:05;;;;;;;7.23;5.27;;;;;;;16.24;56.71;100765.00;4997143;28;20295;-74
2022/04/13 08:18:32;;;;;;;8.13;5.57;;;;;;;16.42;56.03;100766.09;4994983;28;20316;-74
2022/04/13 08:20:59;;;;;;;8.10;5.00;;;;;;;16.64;56.06;100767.84;4997865;28;20216;-74
2022/04/13 08:23:25;;;;;;;8.13;5.07;;;;;;;16.81;55.24;100777.97;4996851;28;20743;-73
2022/04/13 08:25:52;;;;;;;5.83;4.93;;;;;;;16.96;54.97;100770.38;4991302;28;20221;-74
2022/04/13 08:28:18;;;;;;;6.93;4.80;;;;;;;17.10;54.78;100779.94;4992596;28;20237;-73
2022/04/13 08:30:45;;;;;;;8.90;5.63;;;;;;;17.23;54.87;100773.31;4995781;28;20282;-73
2022/04/13 08:33:13;;;;;;;7.10;5.07;;;;;;;17.39;54.94;100771.94;4990300;28;20197;-72
2022/04/13 08:35:39;;;;;;;8.30;4.80;;;;;;;17.48;53.86;100771.97;4996215;28;20223;-74
2022/04/13 08:38:06;;;;;;;7.63;4.80;;;;;;;17.58;53.80;100775.53;4995833;28;20248;-73
2022/04/13 08:40:39;;;;;;;8.33;4.90;;;;;;;17.69;53.55;100777.28;4991993;28;20211;-74
2022/04/13 08:43:09;;;;;;;5.33;4.30;;;;;;;17.76;52.29;100780.25;4993945;28;20677;-73
2022/04/13 08:45:41;;;;;;;5.37;2.77;;;;;;;17.87;51.54;100781.00;4996309;28;20225;-74
2022/04/13 08:48:13;;;;;;;4.77;2.40;;;;;;;17.97;49.28;100781.00;4995764;28;20320;-72
2022/04/13 08:50:44;;;;;;;3.10;2.00;;;;;;;18.09;47.61;100781.72;4998608;28;20222;-75
2022/04/13 08:53:12;;;;;;;4.90;2.30;;;;;;;18.23;46.98;100779.44;4991818;28;20288;-74
2022/04/13 08:55:46;;;;;;;4.10;1.80;;;;;;;18.39;45.97;100774.31;4993866;28;20209;-73
2022/04/13 08:58:19;;;;;;;2.17;1.60;;;;;;;18.54;43.78;100773.84;4999226;28;20309;-73
2022/04/13 09:00:50;;;;;;;3.67;1.73;;;;;;;18.67;42.94;100774.41;4995130;28;20208;-73
2022/04/13 09:03:25;;;;;;;2.20;1.60;;;;;;;18.82;42.32;100778.34;4994460;28;20565;-73
2022/04/13 09:05:55;;;;;;;3.33;1.90;;;;;;;18.99;41.82;100788.34;4990718;28;20206;-73
2022/04/13 09:08:23;;;;;;;3.50;1.80;;;;;;;19.16;41.16;100778.66;4993970;28;20265;-74
2022/04/13 09:10:52;;;;;;;4.33;1.70;;;;;;;19.31;40.68;100777.16;4990605;28;20240;-74
2022/04/13 09:13:21;;;;;;;2.43;1.63;;;;;;;19.46;40.36;100779.34;4994744;28;20838;-73
2022/04/13 09:15:48;;;;;;;1.90;1.53;;;;;;;19.58;39.83;100780.84;4992268;28;20580;-74
2022/04/13 09:18:15;;;;;;;5.07;2.07;;;;;;;19.68;39.82;100769.00;4989339;28;20328;-73
2022/04/13 09:20:43;;;;;;;3.13;1.50;;;;;;;19.82;39.52;100780.28;4989892;28;20682;-73
2022/04/13 09:23:11;;;;;;;5.07;2.17;;;;;;;19.93;39.29;100780.88;4998319;28;20279;-74
2022/04/13 09:25:37;;;;;;;4.23;1.97;;;;;;;20.02;39.03;100777.28;4996499;28;20212;-71
2022/04/13 09:28:05;;;;;;;2.73;1.87;;;;;;;20.15;38.97;100789.53;4997002;28;20243;-72
2022/04/13 09:30:33;;;;;;;3.63;1.97;;;;;;;20.27;39.18;100791.84;4996592;28;20522;-73
2022/04/13 09:33:02;;;;;;;3.90;2.17;;;;;;;20.35;38.67;100794.63;5000798;28;20217;-74
2022/04/13 09:35:32;;;;;;;3.60;1.83;;;;;;;20.44;38.58;100803.66;4993810;28;20217;-72
2022/04/13 09:38:05;;;;;;;3.90;2.10;;;;;;;20.47;38.43;100791.69;4995232;28;20613;-75
2022/04/13 09:40:35;;;;;;;3.77;2.00;;;;;;;20.55;38.79;100799.88;4994178;28;20224;-74
2022/04/13 09:43:06;;;;;;;4.93;2.07;;;;;;;20.63;38.61;100792.66;4999022;28;20205;-74
2022/04/13 09:45:37;;;;;;;5.80;1.90;;;;;;;20.74;38.65;100792.41;4997984;28;20206;-73
2022/04/13 09:48:08;;;;;;;3.17;2.03;;;;;;;20.83;38.57;100787.03;4990277;28;20230;-74
2022/04/13 09:50:36;;;;;;;3.90;2.08;;;;;;;20.92;38.35;100791.50;4989345;28;20705;-72
2022/04/13 09:53:05;;;;;;;4.97;1.85;;;;;;;21.01;38.02;100790.53;4993842;28;20211;-72
2022/04/13 09:55:34;;;;;;;3.45;1.80;;;;;;;21.06;37.92;100794.44;4999412;28;20211;-74
2022/04/13 09:58:09;;;;;;;5.00;2.17;;;;;;;21.13;38.09;100795.53;5002353;28;20223;-74
2022/04/13 10:00:36;;;;;;;7.00;2.40;;;;;;;21.20;38.28;100795.72;4993256;28;20289;-73
2022/04/13 10:03:11;;;;;;;6.93;2.10;;;;;;;21.31;38.15;100802.75;5000073;28;20294;-73
2022/04/13 10:05:38;;;;;;;7.20;2.58;;;;;;;21.40;38.24;100794.47;5002083;28;20205;-71
2022/04/13 10:08:08;;;;;;;4.68;2.10;;;;;;;21.54;38.11;100797.56;5009440;28;20230;-74
2022/04/13 10:10:35;;;;;;;4.90;2.00;;;;;;;21.59;38.01;100804.19;5010599;28;20218;-74
2022/04/13 10:13:02;;;;;;;3.85;1.75;;;;;;;21.66;37.73;100807.09;5010168;28;20286;-73
2022/04/13 10:15:29;;;;;;;3.38;2.20;;;;;;;21.73;37.86;100794.56;5010728;28;20218;-74
2022/04/13 10:17:59;;;;;;;5.53;2.15;;;;;;;21.81;38.37;100800.03;4992468;28;20226;-74
2022/04/13 10:20:41;;;;;;;3.50;1.80;;;;;;;21.89;38.29;100807.31;5002359;28;20222;-74
2022/04/13 10:23:09;;;;;;;3.65;2.03;;;;;;;21.95;38.06;100799.38;4995811;28;20449;-71
2022/04/13 10:25:36;;;;;;;7.40;2.47;;;;;;;21.99;38.11;100792.59;5001927;28;20223;-73
2022/04/13 10:28:03;;;;;;;5.70;2.00;;;;;;;22.05;38.52;100789.22;4998769;28;20310;-73
2022/04/13 10:30:31;;;;;;;5.15;1.90;;;;;;;22.12;38.18;100781.28;5003806;28;20253;-73
2022/04/13 10:33:00;;;;;;;4.20;2.10;;;;;;;22.19;38.30;100790.44;5010300;28;20277;-74
2022/04/13 10:35:28;;;;;;;4.15;2.20;;;;;;;22.27;38.59;100789.59;5009538;28;20301;-74
2022/04/13 10:37:55;;;;;;;7.47;1.90;;;;;;;22.36;38.20;100783.16;5010038;28;20218;-73
2022/04/13 10:40:25;;;;;;;6.07;2.20;;;;;;;22.45;38.27;100790.25;5004387;28;20301;-73
2022/04/13 10:42:52;;;;;;;6.68;2.42;;;;;;;22.52;37.91;100791.28;4996125;28;20211;-71
2022/04/13 10:45:20;;;;;;;6.50;1.95;;;;;;;22.55;38.02;100799.09;5002296;28;20218;-74
2022/04/13 10:48:01;;;;;;;5.35;2.35;;;;;;;22.54;37.82;100796.53;5002235;28;20257;-73
2022/04/13 10:50:33;;;;;;;8.80;2.03;;;;;;;22.54;37.62;100797.41;5001202;28;20199;-73
2022/04/13 10:53:26;;;;;;;5.47;1.85;;;;;;;22.55;37.96;100788.22;4997787;28;20198;-72
2022/04/13 10:56:00;;;;;;;6.60;2.33;;;;;;;22.59;38.01;100786.84;4995679;28;20239;-74
2022/04/13 10:58:41;;;;;;;6.95;2.10;;;;;;;22.62;38.04;100791.09;5004014;28;20645;-73
2022/04/13 11:01:12;;;;;;;7.63;2.50;;;;;;;22.63;38.14;100798.22;5001025;28;20234;-70
2022/04/13 11:03:39;;;;;;;5.18;2.40;;;;;;;22.65;38.01;100794.31;4995544;28;20242;-72
2022/04/13 11:06:08;;;;;;;8.93;2.70;;;;;;;22.69;38.20;100795.69;5003486;28;20243;-72
2022/04/13 11:08:44;;;;;;;5.65;2.70;;;;;;;22.73;38.44;100797.03;4995848;28;20238;-71
2022/04/13 11:11:18;;;;;;;8.60;2.92;;;;;;;22.73;38.38;100802.47;4996780;28;20501;-74
2022/04/13 11:13:59;;;;;;;8.73;2.63;;;;;;;22.75;38.48;100796.88;5000028;28;20466;-71
2022/04/13 11:16:27;;;;;;;6.90;2.33;;;;;;;22.81;38.72;100799.75;5002014;28;20203;-74
2022/04/13 11:19:20;;;;;;;5.20;2.63;;;;;;;22.87;38.49;100797.38;4998830;28;20309;-73
2022/04/13 11:22:11;;;;;;;5.15;2.65;;;;;;;22.90;38.06;100797.03;4998983;28;20211;-73
2022/04/13 11:24:40;;;;;;;7.50;2.53;;;;;;;22.94;38.25;100801.91;5006204;28;20584;-73
2022/04/13 11:27:09;;;;;;;6.28;2.33;;;;;;;22.99;37.75;100804.13;4996524;28;20276;-73
2022/04/13 11:29:37;;;;;;;5.82;2.58;;;;;;;23.06;37.87;100805.13;4994280;28;20350;-72
2022/04/13 11:32:09;;;;;;;5.47;2.67;;;;;;;23.12;37.74;100804.41;4999394;28;20204;-73
2022/04/13 11:34:42;;;;;;;5.25;2.55;;;;;;;23.18;37.57;100803.72;4998771;28;20195;-73